sensor_id;sensor_type;location;lat;lon;timestamp;temperature;humidity
23869;DHT22;12115;47.128;15.422;2023-04-19T00:00:44;10.60;99.90
23869;DHT22;12115;47.128;15.422;2023-04-19T00:03:11;10.60;99.90
23869;DHT22;12115;47.128;15.422;2023-04-19T00:05:40;10.60;99.90
23869;DHT22;12115;47.128;15.422;2023-04-19T00:08:08;10.50;99.90
23869;DHT22;12115;47.128;15.422;2023-04-19T00:10:36;10.60;99.90
23869;DHT22;12115;47.128;15.422;2023-04-19T00:13:06;10.60;99.90
23869;DHT22;12115;47.128;15.422;2023-04-19T00:15:33;10.60;99.90
23869;DHT22;12115;47.128;15.422;2023-04-19T00:18:01;10.60;99.90
23869;DHT22;12115;47.128;15.422;2023-04-19T00:20:28;10.60;99.90
23869;DHT22;12115;47.128;15.422;2023-04-19T00:22:55;10.60;99.90
23869;DHT22;12115;47.128;15.422;2023-04-19T00:25:26;10.60;99.90
23869;DHT22;12115;47.128;15.422;2023-04-19T00:27:54;10.60;99.90
23869;DHT22;12115;47.128;15.422;2023-04-19T00:30:21;10.60;99.90
23869;DHT22;12115;47.128;15.422;2023-04-19T00:32:50;10.60;99.90
23869;DHT22;12115;47.128;15.422;2023-04-19T00:35:17;10.60;99.90
23869;DHT22;12115;47.128;15.422;2023-04-19T00:37:45;10.60;99.90
23869;DHT22;12115;47.128;15.422;2023-04-19T00:40:13;10.60;99.90
23869;DHT22;12115;47.128;15.422;2023-04-19T00:42:43;10.60;99.90
23869;DHT22;12115;47.128;15.422;2023-04-19T00:45:11;10.70;99.90
23869;DHT22;12115;47.128;15.422;2023-04-19T00:47:38;10.70;99.90
23869;DHT22;12115;47.128;15.422;2023-04-19T00:50:06;10.60;99.90
23869;DHT22;12115;47.128;15.422;2023-04-19T00:52:36;10.60;99.90
23869;DHT22;12115;47.128;15.422;2023-04-19T00:55:04;10.60;99.90
23869;DHT22;12115;47.128;15.422;2023-04-19T00:57:31;10.70;99.90
23869;DHT22;12115;47.128;15.422;2023-04-19T00:59:59;10.60;99.90
23869;DHT22;12115;47.128;15.422;2023-04-19T01:02:27;10.70;99.90
23869;DHT22;12115;47.128;15.422;2023-04-19T01:04:55;10.60;99.90
23869;DHT22;12115;47.128;15.422;2023-04-19T01:07:22;10.60;99.90
23869;DHT22;12115;47.128;15.422;2023-04-19T01:09:50;10.60;99.90
23869;DHT22;12115;47.128;15.422;2023-04-19T01:12:20;10.60;99.90
23869;DHT22;12115;47.128;15.422;2023-04-19T01:14:50;10.60;99.90
23869;DHT22;12115;47.128;15.422;2023-04-19T01:17:18;10.60;99.90
23869;DHT22;12115;47.128;15.422;2023-04-19T01:19:45;10.60;99.90
23869;DHT22;12115;47.128;15.422;2023-04-19T01:22:19;10.60;99.90
23869;DHT22;12115;47.128;15.422;2023-04-19T01:24:48;10.60;99.90
23869;DHT22;12115;47.128;15.422;2023-04-19T01:27:31;10.60;99.90
23869;DHT22;12115;47.128;15.422;2023-04-19T01:29:58;10.60;99.90
23869;DHT22;12115;47.128;15.422;2023-04-19T01:32:26;10.60;99.90
23869;DHT22;12115;47.128;15.422;2023-04-19T01:34:58;10.60;99.90
23869;DHT22;12115;47.128;15.422;2023-04-19T01:37:29;10.60;99.90
23869;DHT22;12115;47.128;15.422;2023-04-19T01:39:56;10.60;99.90
23869;DHT22;12115;47.128;15.422;2023-04-19T01:42:23;10.60;99.90
23869;DHT22;12115;47.128;15.422;2023-04-19T01:44:51;10.60;99.90
23869;DHT22;12115;47.128;15.422;2023-04-19T01:47:19;10.50;99.90
23869;DHT22;12115;47.128;15.422;2023-04-19T01:49:49;10.60;99.90
23869;DHT22;12115;47.128;15.422;2023-04-19T01:52:16;10.60;99.90
23869;DHT22;12115;47.128;15.422;2023-04-19T01:54:44;10.60;99.90
23869;DHT22;12115;47.128;15.422;2023-04-19T01:57:14;10.60;99.90
23869;DHT22;12115;47.128;15.422;2023-04-19T01:59:42;10.60;99.90
23869;DHT22;12115;47.128;15.422;2023-04-19T02:02:10;10.50;99.90
23869;DHT22;12115;47.128;15.422;2023-04-19T02:04:38;10.50;99.90
23869;DHT22;12115;47.128;15.422;2023-04-19T02:07:08;10.50;99.90
23869;DHT22;12115;47.128;15.422;2023-04-19T02:09:36;10.50;99.90
23869;DHT22;12115;47.128;15.422;2023-04-19T02:12:04;10.50;99.90
23869;DHT22;12115;47.128;15.422;2023-04-19T02:14:31;10.50;99.90
23869;DHT22;12115;47.128;15.422;2023-04-19T02:16:59;10.50;99.90
23869;DHT22;12115;47.128;15.422;2023-04-19T02:19:26;10.50;99.90
23869;DHT22;12115;47.128;15.422;2023-04-19T02:21:53;10.50;99.90
23869;DHT22;12115;47.128;15.422;2023-04-19T02:24:24;10.50;99.90
23869;DHT22;12115;47.128;15.422;2023-04-19T02:26:54;10.50;99.90
23869;DHT22;12115;47.128;15.422;2023-04-19T02:29:22;10.40;99.90
23869;DHT22;12115;47.128;15.422;2023-04-19T02:31:49;10.40;99.90
23869;DHT22;12115;47.128;15.422;2023-04-19T02:34:16;10.40;99.90
23869;DHT22;12115;47.128;15.422;2023-04-19T02:36:44;10.40;99.90
23869;DHT22;12115;47.128;15.422;2023-04-19T02:39:11;10.40;99.90
23869;DHT22;12115;47.128;15.422;2023-04-19T02:41:39;10.40;99.90
23869;DHT22;12115;47.128;15.422;2023-04-19T02:44:06;10.40;99.90
23869;DHT22;12115;47.128;15.422;2023-04-19T02:46:34;10.40;99.90
23869;DHT22;12115;47.128;15.422;2023-04-19T02:49:01;10.40;99.90
23869;DHT22;12115;47.128;15.422;2023-04-19T02:51:29;10.40;99.90
23869;DHT22;12115;47.128;15.422;2023-04-19T02:53:57;10.40;99.90
23869;DHT22;12115;47.128;15.422;2023-04-19T02:56:24;10.40;99.90
23869;DHT22;12115;47.128;15.422;2023-04-19T02:58:52;10.40;99.90
23869;DHT22;12115;47.128;15.422;2023-04-19T03:01:21;10.40;99.90
23869;DHT22;12115;47.128;15.422;2023-04-19T03:03:48;10.40;99.90
23869;DHT22;12115;47.128;15.422;2023-04-19T03:06:16;10.40;99.90
23869;DHT22;12115;47.128;15.422;2023-04-19T03:08:43;10.30;99.90
23869;DHT22;12115;47.128;15.422;2023-04-19T03:11:13;10.30;99.90
23869;DHT22;12115;47.128;15.422;2023-04-19T03:13:40;10.30;99.90
23869;DHT22;12115;47.128;15.422;2023-04-19T03:16:08;10.30;99.90
23869;DHT22;12115;47.128;15.422;2023-04-19T03:18:36;10.30;99.90
23869;DHT22;12115;47.128;15.422;2023-04-19T03:21:04;10.30;99.90
23869;DHT22;12115;47.128;15.422;2023-04-19T03:24:25;10.30;99.90
23869;DHT22;12115;47.128;15.422;2023-04-19T03:26:54;10.30;99.90
23869;DHT22;12115;47.128;15.422;2023-04-19T03:29:25;10.20;99.90
23869;DHT22;12115;47.128;15.422;2023-04-19T03:31:59;10.20;99.90
23869;DHT22;12115;47.128;15.422;2023-04-19T03:34:53;10.10;99.90
23869;DHT22;12115;47.128;15.422;2023-04-19T03:37:20;10.10;99.90
23869;DHT22;12115;47.128;15.422;2023-04-19T03:39:48;10.10;99.90
23869;DHT22;12115;47.128;15.422;2023-04-19T03:42:21;10.10;99.90
23869;DHT22;12115;47.128;15.422;2023-04-19T03:45:09;10.10;99.90
23869;DHT22;12115;47.128;15.422;2023-04-19T03:47:40;10.00;99.90
23869;DHT22;12115;47.128;15.422;2023-04-19T03:50:09;10.00;99.90
23869;DHT22;12115;47.128;15.422;2023-04-19T03:52:37;10.00;99.90
23869;DHT22;12115;47.128;15.422;2023-04-19T03:55:05;10.00;99.90
23869;DHT22;12115;47.128;15.422;2023-04-19T03:57:36;10.00;99.90
23869;DHT22;12115;47.128;15.422;2023-04-19T04:00:13;9.90;99.90
23869;DHT22;12115;47.128;15.422;2023-04-19T04:02:41;9.90;99.90
23869;DHT22;12115;47.128;15.422;2023-04-19T04:05:11;9.90;99.90
23869;DHT22;12115;47.128;15.422;2023-04-19T04:07:39;9.80;99.90
23869;DHT22;12115;47.128;15.422;2023-04-19T04:10:09;9.80;99.90
23869;DHT22;12115;47.128;15.422;2023-04-19T04:12:42;9.80;99.90
23869;DHT22;12115;47.128;15.422;2023-04-19T04:15:14;9.80;99.90
23869;DHT22;12115;47.128;15.422;2023-04-19T04:17:46;9.80;99.90
23869;DHT22;12115;47.128;15.422;2023-04-19T04:20:14;9.70;99.90
23869;DHT22;12115;47.128;15.422;2023-04-19T04:22:51;9.70;99.90
23869;DHT22;12115;47.128;15.422;2023-04-19T04:25:19;9.70;99.90
23869;DHT22;12115;47.128;15.422;2023-04-19T04:27:50;9.60;99.90
23869;DHT22;12115;47.128;15.422;2023-04-19T04:30:20;9.70;99.90
23869;DHT22;12115;47.128;15.422;2023-04-19T04:32:48;9.70;99.90
23869;DHT22;12115;47.128;15.422;2023-04-19T04:35:17;9.70;99.90
23869;DHT22;12115;47.128;15.422;2023-04-19T04:37:54;9.60;99.90
23869;DHT22;12115;47.128;15.422;2023-04-19T04:40:22;9.60;99.90
23869;DHT22;12115;47.128;15.422;2023-04-19T04:42:49;9.60;99.90
23869;DHT22;12115;47.128;15.422;2023-04-19T04:45:19;9.60;99.90
23869;DHT22;12115;47.128;15.422;2023-04-19T04:47:48;9.60;99.90
23869;DHT22;12115;47.128;15.422;2023-04-19T04:50:18;9.60;99.90
23869;DHT22;12115;47.128;15.422;2023-04-19T04:52:46;9.70;99.90
23869;DHT22;12115;47.128;15.422;2023-04-19T04:55:22;9.60;99.90
23869;DHT22;12115;47.128;15.422;2023-04-19T04:57:56;9.60;99.90
23869;DHT22;12115;47.128;15.422;2023-04-19T05:00:33;9.60;99.90
23869;DHT22;12115;47.128;15.422;2023-04-19T05:03:04;9.60;99.90
23869;DHT22;12115;47.128;15.422;2023-04-19T05:05:38;9.60;99.90
23869;DHT22;12115;47.128;15.422;2023-04-19T05:08:05;9.60;99.90
23869;DHT22;12115;47.128;15.422;2023-04-19T05:10:33;9.60;99.90
23869;DHT22;12115;47.128;15.422;2023-04-19T05:13:00;9.70;99.90
23869;DHT22;12115;47.128;15.422;2023-04-19T05:15:28;9.70;99.90
23869;DHT22;12115;47.128;15.422;2023-04-19T05:17:57;9.70;99.90
23869;DHT22;12115;47.128;15.422;2023-04-19T05:20:25;9.80;99.90
23869;DHT22;12115;47.128;15.422;2023-04-19T05:23:01;9.90;99.90
23869;DHT22;12115;47.128;15.422;2023-04-19T05:25:31;9.90;99.90
23869;DHT22;12115;47.128;15.422;2023-04-19T05:27:59;10.00;99.90
23869;DHT22;12115;47.128;15.422;2023-04-19T05:30:32;10.00;99.90
23869;DHT22;12115;47.128;15.422;2023-04-19T05:33:45;10.10;99.90
23869;DHT22;12115;47.128;15.422;2023-04-19T05:36:14;10.10;99.90
23869;DHT22;12115;47.128;15.422;2023-04-19T05:38:44;10.20;99.90
23869;DHT22;12115;47.128;15.422;2023-04-19T05:41:14;10.20;99.90
23869;DHT22;12115;47.128;15.422;2023-04-19T05:43:46;10.20;99.90
23869;DHT22;12115;47.128;15.422;2023-04-19T05:46:27;10.30;99.90
23869;DHT22;12115;47.128;15.422;2023-04-19T05:48:56;10.30;99.90
23869;DHT22;12115;47.128;15.422;2023-04-19T05:51:26;10.40;99.90
23869;DHT22;12115;47.128;15.422;2023-04-19T05:54:25;10.40;99.90
23869;DHT22;12115;47.128;15.422;2023-04-19T05:56:54;10.50;99.90
23869;DHT22;12115;47.128;15.422;2023-04-19T05:59:21;10.50;99.90
23869;DHT22;12115;47.128;15.422;2023-04-19T06:01:48;10.60;99.90
23869;DHT22;12115;47.128;15.422;2023-04-19T06:04:16;10.60;99.90
23869;DHT22;12115;47.128;15.422;2023-04-19T06:06:44;10.70;99.90
23869;DHT22;12115;47.128;15.422;2023-04-19T06:09:13;10.70;99.90
23869;DHT22;12115;47.128;15.422;2023-04-19T06:11:41;10.70;99.90
23869;DHT22;12115;47.128;15.422;2023-04-19T06:14:17;10.80;99.90
23869;DHT22;12115;47.128;15.422;2023-04-19T06:16:45;10.80;99.90
23869;DHT22;12115;47.128;15.422;2023-04-19T06:19:13;10.80;99.90
23869;DHT22;12115;47.128;15.422;2023-04-19T06:21:40;10.90;99.90
23869;DHT22;12115;47.128;15.422;2023-04-19T06:24:07;11.00;99.90
23869;DHT22;12115;47.128;15.422;2023-04-19T06:26:35;11.00;99.90
23869;DHT22;12115;47.128;15.422;2023-04-19T06:29:02;11.10;99.90
23869;DHT22;12115;47.128;15.422;2023-04-19T06:31:32;11.10;99.90
23869;DHT22;12115;47.128;15.422;2023-04-19T06:34:15;11.20;99.90
23869;DHT22;12115;47.128;15.422;2023-04-19T06:36:43;11.20;99.90
23869;DHT22;12115;47.128;15.422;2023-04-19T06:39:14;11.30;99.90
23869;DHT22;12115;47.128;15.422;2023-04-19T06:41:41;11.40;99.90
23869;DHT22;12115;47.128;15.422;2023-04-19T06:44:11;11.50;99.90
23869;DHT22;12115;47.128;15.422;2023-04-19T06:46:42;11.50;99.90
23869;DHT22;12115;47.128;15.422;2023-04-19T06:49:10;11.60;99.90
23869;DHT22;12115;47.128;15.422;2023-04-19T06:51:38;11.60;99.90
23869;DHT22;12115;47.128;15.422;2023-04-19T06:54:05;11.70;99.90
23869;DHT22;12115;47.128;15.422;2023-04-19T06:56:47;11.70;99.90
23869;DHT22;12115;47.128;15.422;2023-04-19T06:59:19;11.70;99.90
23869;DHT22;12115;47.128;15.422;2023-04-19T07:01:47;11.80;99.90
23869;DHT22;12115;47.128;15.422;2023-04-19T07:04:15;12.00;99.90
23869;DHT22;12115;47.128;15.422;2023-04-19T07:06:46;12.10;99.90
23869;DHT22;12115;47.128;15.422;2023-04-19T07:09:40;12.20;99.90
23869;DHT22;12115;47.128;15.422;2023-04-19T07:12:07;12.20;99.90
23869;DHT22;12115;47.128;15.422;2023-04-19T07:14:34;12.30;99.90
23869;DHT22;12115;47.128;15.422;2023-04-19T07:17:03;12.30;99.90
23869;DHT22;12115;47.128;15.422;2023-04-19T07:19:31;12.30;99.90
23869;DHT22;12115;47.128;15.422;2023-04-19T07:21:59;12.40;99.90
23869;DHT22;12115;47.128;15.422;2023-04-19T07:24:26;12.40;99.90
23869;DHT22;12115;47.128;15.422;2023-04-19T07:26:56;12.50;99.90
23869;DHT22;12115;47.128;15.422;2023-04-19T07:29:36;12.70;99.90
23869;DHT22;12115;47.128;15.422;2023-04-19T07:32:08;12.80;99.90
23869;DHT22;12115;47.128;15.422;2023-04-19T07:34:36;12.90;99.90
23869;DHT22;12115;47.128;15.422;2023-04-19T07:43:52;13.10;99.90
23869;DHT22;12115;47.128;15.422;2023-04-19T07:46:19;13.20;99.90
23869;DHT22;12115;47.128;15.422;2023-04-19T07:48:46;13.30;99.90
23869;DHT22;12115;47.128;15.422;2023-04-19T07:51:15;13.50;99.90
23869;DHT22;12115;47.128;15.422;2023-04-19T07:53:43;13.60;99.90
23869;DHT22;12115;47.128;15.422;2023-04-19T07:56:12;13.80;99.90
23869;DHT22;12115;47.128;15.422;2023-04-19T07:58:40;13.90;99.90
23869;DHT22;12115;47.128;15.422;2023-04-19T08:01:08;14.00;99.90
23869;DHT22;12115;47.128;15.422;2023-04-19T08:03:48;14.10;99.90
23869;DHT22;12115;47.128;15.422;2023-04-19T08:06:16;14.20;99.90
23869;DHT22;12115;47.128;15.422;2023-04-19T08:08:54;14.20;99.90
23869;DHT22;12115;47.128;15.422;2023-04-19T08:11:21;14.40;99.90
23869;DHT22;12115;47.128;15.422;2023-04-19T08:13:51;14.60;99.90
23869;DHT22;12115;47.128;15.422;2023-04-19T08:16:58;14.80;99.90
23869;DHT22;12115;47.128;15.422;2023-04-19T08:19:28;15.00;99.90
23869;DHT22;12115;47.128;15.422;2023-04-19T08:22:19;15.00;99.90
23869;DHT22;12115;47.128;15.422;2023-04-19T08:24:53;15.10;99.90
23869;DHT22;12115;47.128;15.422;2023-04-19T08:27:20;15.30;99.90
23869;DHT22;12115;47.128;15.422;2023-04-19T08:29:48;15.50;99.90
23869;DHT22;12115;47.128;15.422;2023-04-19T08:32:15;15.40;99.90
23869;DHT22;12115;47.128;15.422;2023-04-19T08:34:42;15.50;99.90
23869;DHT22;12115;47.128;15.422;2023-04-19T08:37:10;15.50;99.90
23869;DHT22;12115;47.128;15.422;2023-04-19T08:39:37;15.60;99.90
23869;DHT22;12115;47.128;15.422;2023-04-19T08:42:07;15.70;99.90
23869;DHT22;12115;47.128;15.422;2023-04-19T08:44:55;15.80;99.90
23869;DHT22;12115;47.128;15.422;2023-04-19T08:47:45;15.80;99.90
23869;DHT22;12115;47.128;15.422;2023-04-19T08:50:27;15.90;99.90
23869;DHT22;12115;47.128;15.422;2023-04-19T08:53:05;15.90;99.90
23869;DHT22;12115;47.128;15.422;2023-04-19T08:55:52;16.00;99.90
23869;DHT22;12115;47.128;15.422;2023-04-19T08:59:25;15.90;99.90
23869;DHT22;12115;47.128;15.422;2023-04-19T09:02:07;16.10;99.90
23869;DHT22;12115;47.128;15.422;2023-04-19T09:04:35;16.20;99.80
23869;DHT22;12115;47.128;15.422;2023-04-19T09:07:04;16.30;99.40
23869;DHT22;12115;47.128;15.422;2023-04-19T09:09:35;16.50;99.10
23869;DHT22;12115;47.128;15.422;2023-04-19T09:12:21;16.60;99.90
23869;DHT22;12115;47.128;15.422;2023-04-19T09:14:51;16.80;99.20
23869;DHT22;12115;47.128;15.422;2023-04-19T09:17:22;17.00;98.90
23869;DHT22;12115;47.128;15.422;2023-04-19T09:19:50;17.20;97.90
23869;DHT22;12115;47.128;15.422;2023-04-19T09:22:18;17.40;98.70
23869;DHT22;12115;47.128;15.422;2023-04-19T09:27:28;17.60;97.10
23869;DHT22;12115;47.128;15.422;2023-04-19T09:29:59;17.80;97.20
23869;DHT22;12115;47.128;15.422;2023-04-19T09:32:53;17.80;97.20
23869;DHT22;12115;47.128;15.422;2023-04-19T09:35:21;17.60;96.80
23869;DHT22;12115;47.128;15.422;2023-04-19T09:38:05;17.60;95.80
23869;DHT22;12115;47.128;15.422;2023-04-19T09:40:44;17.60;96.40
23869;DHT22;12115;47.128;15.422;2023-04-19T09:43:22;17.30;94.10
23869;DHT22;12115;47.128;15.422;2023-04-19T09:46:36;17.20;94.50
23869;DHT22;12115;47.128;15.422;2023-04-19T09:49:22;17.20;95.60
23869;DHT22;12115;47.128;15.422;2023-04-19T09:52:13;17.10;96.20
23869;DHT22;12115;47.128;15.422;2023-04-19T09:54:41;17.00;95.20
23869;DHT22;12115;47.128;15.422;2023-04-19T09:57:09;16.70;93.50
23869;DHT22;12115;47.128;15.422;2023-04-19T09:59:37;16.60;94.80
23869;DHT22;12115;47.128;15.422;2023-04-19T10:02:05;16.50;94.30
23869;DHT22;12115;47.128;15.422;2023-04-19T10:04:36;16.30;94.20
23869;DHT22;12115;47.128;15.422;2023-04-19T10:07:51;16.30;94.90
23869;DHT22;12115;47.128;15.422;2023-04-19T10:10:25;16.30;95.50
23869;DHT22;12115;47.128;15.422;2023-04-19T10:13:10;16.30;96.50
23869;DHT22;12115;47.128;15.422;2023-04-19T10:15:47;16.30;95.40
23869;DHT22;12115;47.128;15.422;2023-04-19T10:18:25;16.30;96.40
23869;DHT22;12115;47.128;15.422;2023-04-19T10:21:06;16.30;95.90
23869;DHT22;12115;47.128;15.422;2023-04-19T10:23:36;16.30;96.00
23869;DHT22;12115;47.128;15.422;2023-04-19T10:26:03;16.20;96.10
23869;DHT22;12115;47.128;15.422;2023-04-19T10:28:34;16.20;96.30
23869;DHT22;12115;47.128;15.422;2023-04-19T10:31:03;16.30;96.10
23869;DHT22;12115;47.128;15.422;2023-04-19T10:33:35;16.20;95.60
23869;DHT22;12115;47.128;15.422;2023-04-19T10:36:06;16.20;95.80
23869;DHT22;12115;47.128;15.422;2023-04-19T10:38:41;16.10;95.60
23869;DHT22;12115;47.128;15.422;2023-04-19T10:41:15;16.00;95.80
23869;DHT22;12115;47.128;15.422;2023-04-19T10:43:47;16.00;96.40
23869;DHT22;12115;47.128;15.422;2023-04-19T10:46:35;15.90;96.20
23869;DHT22;12115;47.128;15.422;2023-04-19T10:49:04;15.80;96.10
23869;DHT22;12115;47.128;15.422;2023-04-19T10:51:36;15.70;96.20
23869;DHT22;12115;47.128;15.422;2023-04-19T10:54:05;15.60;96.20
23869;DHT22;12115;47.128;15.422;2023-04-19T11:11:52;14.60;98.50
23869;DHT22;12115;47.128;15.422;2023-04-19T11:14:20;14.70;99.10
23869;DHT22;12115;47.128;15.422;2023-04-19T11:16:48;14.70;99.80
23869;DHT22;12115;47.128;15.422;2023-04-19T11:19:25;14.80;99.90
23869;DHT22;12115;47.128;15.422;2023-04-19T11:21:57;14.70;99.90
23869;DHT22;12115;47.128;15.422;2023-04-19T11:24:25;14.50;99.90
23869;DHT22;12115;47.128;15.422;2023-04-19T11:26:55;14.60;99.90
23869;DHT22;12115;47.128;15.422;2023-04-19T11:29:24;14.40;99.90
23869;DHT22;12115;47.128;15.422;2023-04-19T11:31:52;14.30;99.90
23869;DHT22;12115;47.128;15.422;2023-04-19T11:34:23;14.30;99.90
23869;DHT22;12115;47.128;15.422;2023-04-19T11:36:51;14.20;99.90
23869;DHT22;12115;47.128;15.422;2023-04-19T11:39:19;14.10;99.90
23869;DHT22;12115;47.128;15.422;2023-04-19T11:41:47;13.90;99.90
23869;DHT22;12115;47.128;15.422;2023-04-19T11:44:19;13.90;99.90
23869;DHT22;12115;47.128;15.422;2023-04-19T11:47:01;14.00;99.90
23869;DHT22;12115;47.128;15.422;2023-04-19T11:49:31;13.90;99.90
23869;DHT22;12115;47.128;15.422;2023-04-19T11:52:00;13.90;99.90
23869;DHT22;12115;47.128;15.422;2023-04-19T11:54:31;13.70;99.90
23869;DHT22;12115;47.128;15.422;2023-04-19T11:57:04;13.80;99.90
23869;DHT22;12115;47.128;15.422;2023-04-19T11:59:33;13.70;99.90
23869;DHT22;12115;47.128;15.422;2023-04-19T12:02:11;13.70;99.90
23869;DHT22;12115;47.128;15.422;2023-04-19T12:04:39;13.80;99.90
23869;DHT22;12115;47.128;15.422;2023-04-19T12:07:09;13.80;99.90
23869;DHT22;12115;47.128;15.422;2023-04-19T12:09:37;13.80;99.90
23869;DHT22;12115;47.128;15.422;2023-04-19T12:12:05;13.70;99.90
23869;DHT22;12115;47.128;15.422;2023-04-19T12:14:33;13.80;99.90
23869;DHT22;12115;47.128;15.422;2023-04-19T12:17:27;13.80;99.90
23869;DHT22;12115;47.128;15.422;2023-04-19T12:19:58;13.90;99.90
23869;DHT22;12115;47.128;15.422;2023-04-19T12:22:25;13.90;99.90
23869;DHT22;12115;47.128;15.422;2023-04-19T12:24:53;13.80;99.90
23869;DHT22;12115;47.128;15.422;2023-04-19T12:27:22;13.80;99.90
23869;DHT22;12115;47.128;15.422;2023-04-19T12:29:49;13.80;99.90
23869;DHT22;12115;47.128;15.422;2023-04-19T12:32:42;13.70;99.90
23869;DHT22;12115;47.128;15.422;2023-04-19T12:35:10;13.60;99.90
23869;DHT22;12115;47.128;15.422;2023-04-19T12:37:37;13.70;99.90
23869;DHT22;12115;47.128;15.422;2023-04-19T12:40:05;13.70;99.90
23869;DHT22;12115;47.128;15.422;2023-04-19T12:46:52;13.70;99.90
23869;DHT22;12115;47.128;15.422;2023-04-19T12:49:23;13.50;99.90
23869;DHT22;12115;47.128;15.422;2023-04-19T12:51:51;13.50;99.90
23869;DHT22;12115;47.128;15.422;2023-04-19T12:54:20;13.60;99.90
23869;DHT22;12115;47.128;15.422;2023-04-19T12:56:48;13.50;99.90
23869;DHT22;12115;47.128;15.422;2023-04-19T12:59:15;13.50;99.90
23869;DHT22;12115;47.128;15.422;2023-04-19T13:01:44;13.50;99.90
23869;DHT22;12115;47.128;15.422;2023-04-19T13:04:12;13.50;99.90
23869;DHT22;12115;47.128;15.422;2023-04-19T13:06:39;13.40;99.90
23869;DHT22;12115;47.128;15.422;2023-04-19T13:09:08;13.40;99.90
23869;DHT22;12115;47.128;15.422;2023-04-19T13:11:38;13.40;99.90
23869;DHT22;12115;47.128;15.422;2023-04-19T13:14:06;13.40;99.90
23869;DHT22;12115;47.128;15.422;2023-04-19T13:16:33;13.40;99.90
23869;DHT22;12115;47.128;15.422;2023-04-19T13:19:07;13.40;99.90
23869;DHT22;12115;47.128;15.422;2023-04-19T13:21:35;13.30;99.90
23869;DHT22;12115;47.128;15.422;2023-04-19T13:24:02;13.40;99.90
23869;DHT22;12115;47.128;15.422;2023-04-19T13:26:29;13.40;99.90
23869;DHT22;12115;47.128;15.422;2023-04-19T13:28:57;13.40;99.90
23869;DHT22;12115;47.128;15.422;2023-04-19T13:31:25;13.40;99.90
23869;DHT22;12115;47.128;15.422;2023-04-19T13:33:53;13.50;99.90
23869;DHT22;12115;47.128;15.422;2023-04-19T13:36:21;13.50;99.90
23869;DHT22;12115;47.128;15.422;2023-04-19T13:39:13;13.50;99.90
23869;DHT22;12115;47.128;15.422;2023-04-19T13:41:41;13.60;99.90
23869;DHT22;12115;47.128;15.422;2023-04-19T13:44:09;13.50;99.90
23869;DHT22;12115;47.128;15.422;2023-04-19T13:46:37;13.50;99.90
23869;DHT22;12115;47.128;15.422;2023-04-19T13:49:04;13.60;99.90
23869;DHT22;12115;47.128;15.422;2023-04-19T13:51:33;13.60;99.90
23869;DHT22;12115;47.128;15.422;2023-04-19T13:54:15;13.60;99.90
23869;DHT22;12115;47.128;15.422;2023-04-19T13:56:46;13.70;99.90
23869;DHT22;12115;47.128;15.422;2023-04-19T13:59:18;13.70;99.90
23869;DHT22;12115;47.128;15.422;2023-04-19T14:01:45;13.70;99.90
23869;DHT22;12115;47.128;15.422;2023-04-19T14:04:13;13.80;99.90
23869;DHT22;12115;47.128;15.422;2023-04-19T14:06:41;13.70;99.90
23869;DHT22;12115;47.128;15.422;2023-04-19T14:09:09;13.70;99.90
23869;DHT22;12115;47.128;15.422;2023-04-19T14:11:36;13.70;99.90
23869;DHT22;12115;47.128;15.422;2023-04-19T14:14:05;13.70;99.90
23869;DHT22;12115;47.128;15.422;2023-04-19T14:16:32;13.70;99.90
23869;DHT22;12115;47.128;15.422;2023-04-19T14:19:00;13.70;99.90
23869;DHT22;12115;47.128;15.422;2023-04-19T14:25:41;13.90;99.90
23869;DHT22;12115;47.128;15.422;2023-04-19T14:28:08;13.80;99.90
23869;DHT22;12115;47.128;15.422;2023-04-19T14:30:42;13.90;99.90
23869;DHT22;12115;47.128;15.422;2023-04-19T14:33:09;13.80;99.90
23869;DHT22;12115;47.128;15.422;2023-04-19T14:35:44;13.50;99.90
23869;DHT22;12115;47.128;15.422;2023-04-19T14:38:11;13.40;99.90
23869;DHT22;12115;47.128;15.422;2023-04-19T14:40:39;13.40;99.90
23869;DHT22;12115;47.128;15.422;2023-04-19T14:43:06;13.30;99.90
23869;DHT22;12115;47.128;15.422;2023-04-19T14:45:34;13.30;99.90
23869;DHT22;12115;47.128;15.422;2023-04-19T14:48:02;13.20;99.90
23869;DHT22;12115;47.128;15.422;2023-04-19T14:50:30;13.10;99.90
23869;DHT22;12115;47.128;15.422;2023-04-19T14:52:58;13.10;99.90
23869;DHT22;12115;47.128;15.422;2023-04-19T14:55:26;12.90;99.90
23869;DHT22;12115;47.128;15.422;2023-04-19T14:57:55;12.80;99.90
23869;DHT22;12115;47.128;15.422;2023-04-19T15:00:24;12.70;99.90
23869;DHT22;12115;47.128;15.422;2023-04-19T15:02:52;12.60;99.90
23869;DHT22;12115;47.128;15.422;2023-04-19T15:05:22;12.50;99.90
23869;DHT22;12115;47.128;15.422;2023-04-19T15:07:51;12.40;99.90
23869;DHT22;12115;47.128;15.422;2023-04-19T15:10:21;12.30;99.90
23869;DHT22;12115;47.128;15.422;2023-04-19T15:12:48;12.30;99.90
23869;DHT22;12115;47.128;15.422;2023-04-19T15:15:17;12.20;99.90
23869;DHT22;12115;47.128;15.422;2023-04-19T15:17:46;12.10;99.90
23869;DHT22;12115;47.128;15.422;2023-04-19T15:20:16;12.10;99.90
23869;DHT22;12115;47.128;15.422;2023-04-19T15:22:51;12.00;99.90
23869;DHT22;12115;47.128;15.422;2023-04-19T15:25:28;11.90;99.90
23869;DHT22;12115;47.128;15.422;2023-04-19T15:27:57;11.90;99.90
23869;DHT22;12115;47.128;15.422;2023-04-19T15:30:25;11.80;99.90
23869;DHT22;12115;47.128;15.422;2023-04-19T15:32:53;11.80;99.90
23869;DHT22;12115;47.128;15.422;2023-04-19T15:35:27;11.60;99.90
23869;DHT22;12115;47.128;15.422;2023-04-19T15:37:55;11.60;99.90
23869;DHT22;12115;47.128;15.422;2023-04-19T15:40:23;11.60;99.90
23869;DHT22;12115;47.128;15.422;2023-04-19T15:42:51;11.60;99.90
23869;DHT22;12115;47.128;15.422;2023-04-19T15:45:18;11.60;99.90
23869;DHT22;12115;47.128;15.422;2023-04-19T15:47:46;11.50;99.90
23869;DHT22;12115;47.128;15.422;2023-04-19T15:50:14;11.40;99.90
23869;DHT22;12115;47.128;15.422;2023-04-19T15:52:42;11.50;99.90
23869;DHT22;12115;47.128;15.422;2023-04-19T15:55:10;11.60;99.90
23869;DHT22;12115;47.128;15.422;2023-04-19T15:57:38;11.60;99.90
23869;DHT22;12115;47.128;15.422;2023-04-19T16:00:06;11.40;99.90
23869;DHT22;12115;47.128;15.422;2023-04-19T16:02:38;11.20;99.90
23869;DHT22;12115;47.128;15.422;2023-04-19T16:05:07;11.20;99.90
23869;DHT22;12115;47.128;15.422;2023-04-19T16:07:35;11.20;99.90
23869;DHT22;12115;47.128;15.422;2023-04-19T16:10:03;11.10;99.90
23869;DHT22;12115;47.128;15.422;2023-04-19T16:12:30;10.90;99.90
23869;DHT22;12115;47.128;15.422;2023-04-19T16:14:58;10.90;99.90